メインページ
METAR-TAF:

METAR-TAF

空港 :

ナジャフ, イラク

緯度: 31-59-23N, 経度: 44-24-15E, 海抜: 31m

現時点の気象観測

当レポートは54分前の20:00(UTC)に作成
北/北西の風 8kt
気温 38°C
湿度 15%
気圧 999 hPa
視程: 7000m

METAR: ORNI 212000Z 33008KT 7000 NSC 38/07 Q0999

時間: 23:54 (20:54 UTC)

予報

当レポートは4時間54分前の16:00(UTC)に作成
予報は21日の 18時(UTC)から 22日の 18時(UTC)まで有効
北西の風 12kt
視程: 6000m

TAF: ORNI 211600Z 2118/2218 32012KT 6000 NSC

4,000以上の空港の気象観測と天気予報(METAR報とTAF報)

利用可能な観測所は地図上に黄色い丸と赤い丸で示す。

丸の上にカーソルを重ねると観測所名を参照できる。

次にクリックすると気象観測と天気予報を参照できる。

マップの切り替え:黒色「×」印の緑ボタンをクリックして拡大、「-」印の緑ボタンをクリックして縮小、緑色の三角印をクリックして隣りの地図に切り替え


METAR-TAF: